Weather History for Sheldon, IA

Change the Weather History Date:

Saturday, March 22, 2014

  Actual Average Record
Temperature  
Mean Temperature 20 °F -  
Max Temperature 26 °F 44 °F 76 °F (1988)
Min Temperature 14 °F 25 °F -2 °F (1955)
Degree Days  
Heating Degree Days 45    
Moisture  
Dew Point 9 °F    
Average Humidity 63    
Maximum Humidity 80    
Minimum Humidity 43    
Precipitation  
Precipitation 0.00 in - - ()
Sea Level Pressure  
Sea Level Pressure 30.39 in    
Wind  
Wind Speed 16 mph (North)    
Max Wind Speed 23 mph    
Max Gust Speed 29 mph    
Visibility 10 miles    
Events      
Averages and records for this station are not official NWS values.
T = Trace of Precipitation, MM = Missing Value Source: NWS Daily Summary

Daily Weather History Graph

Daily Weather History Graph

Search for Another Location

Airport:

Trip Planner

Search our weather history database for the weather conditions in past years. The results will help you decide how hot, cold, wet, or windy it might be!

Date:

Astronomy

Mar. 22, 2014 Rise Set
Actual Time 7:22 AM CDT 7:38 PM CDT
Civil Twilight 6:54 AM CDT 8:06 PM CDT
Nautical Twilight 6:21 AM CDT 8:40 PM CDT
Astronomical Twilight 5:47 AM CDT 9:14 PM CDT
Moon 1:05 AM CDT (3/22) 10:59 AM CDT (3/22)
Length of Visible Light 13h 12m
Length of Day
12h 15m
Waning Gibbous, 65% of the Moon is Illuminated
Mar 22
Waning Gibbous
Mar 23
Last Quarter
Mar 30
New
Apr 7
First Quarter
Apr 15
Full

Hourly Weather History & Observations

Time (CDT) Temp. Windchill Dew Point Humidity Pressure Visibility Wind Dir Wind Speed Gust Speed Precip Events Conditions
12:15 AM 23.0 °F 8.0 °F 15.8 °F 74% 30.24 in 10.0 mi North 20.7 mph - N/A   Clear
12:35 AM 23.0 °F 8.7 °F 14.0 °F 68% 30.25 in 10.0 mi NNW 18.4 mph 27.6 mph N/A   Clear
12:55 AM 21.2 °F 8.9 °F 14.0 °F 74% 30.26 in 10.0 mi NNW 12.7 mph 18.4 mph N/A   Clear
1:15 AM 21.2 °F 8.3 °F 14.0 °F 74% 30.25 in 10.0 mi NNW 13.8 mph 20.7 mph N/A   Scattered Clouds
1:35 AM 21.2 °F 8.3 °F 14.0 °F 74% 30.26 in 10.0 mi NNW 13.8 mph 19.6 mph N/A   Partly Cloudy
1:55 AM 19.4 °F 6.0 °F 14.0 °F 80% 30.26 in 10.0 mi NNW 13.8 mph 19.6 mph N/A   Partly Cloudy
2:15 AM 19.4 °F 3.6 °F 12.2 °F 74% 30.26 in 10.0 mi NNW 19.6 mph - N/A   Clear
2:35 AM 19.4 °F 3.6 °F 10.4 °F 68% 30.27 in 10.0 mi North 19.6 mph 26.5 mph N/A   Clear
2:55 AM 19.4 °F 4.5 °F 10.4 °F 68% 30.28 in 10.0 mi NNW 17.3 mph 26.5 mph N/A   Clear
3:15 AM 17.6 °F 1.7 °F 12.2 °F 79% 30.28 in 10.0 mi North 18.4 mph - N/A   Clear
3:35 AM 17.6 °F 0.9 °F 10.4 °F 73% 30.28 in 10.0 mi North 20.7 mph - N/A   Clear
3:55 AM 17.6 °F 1.3 °F 10.4 °F 73% 30.29 in 10.0 mi North 19.6 mph - N/A   Clear
4:15 AM 17.6 °F 3.7 °F 10.4 °F 73% 30.30 in 10.0 mi NNW 13.8 mph 19.6 mph N/A   Clear
4:35 AM 17.6 °F 2.7 °F 10.4 °F 73% 30.31 in 10.0 mi NNW 16.1 mph 23.0 mph N/A   Partly Cloudy
4:55 AM 15.8 °F 1.4 °F 10.4 °F 79% 30.32 in 10.0 mi NNW 13.8 mph 21.9 mph N/A   Partly Cloudy
5:15 AM 15.8 °F 0.9 °F 8.6 °F 73% 30.32 in 10.0 mi North 15.0 mph - N/A   Partly Cloudy
5:35 AM 15.8 °F 0.3 °F 8.6 °F 73% 30.32 in 10.0 mi North 16.1 mph 23.0 mph N/A   Partly Cloudy
5:55 AM 15.8 °F 0.9 °F 8.6 °F 73% 30.32 in 10.0 mi North 15.0 mph 21.9 mph N/A   Partly Cloudy
6:15 AM 15.8 °F 1.4 °F 8.6 °F 73% 30.34 in 10.0 mi North 13.8 mph - N/A   Clear
6:35 AM 15.8 °F 0.9 °F 8.6 °F 73% 30.34 in 10.0 mi NNW 15.0 mph - N/A   Scattered Clouds
6:55 AM 14.0 °F -2.0 °F 8.6 °F 79% 30.35 in 10.0 mi NNW 16.1 mph 21.9 mph N/A   Mostly Cloudy
7:15 AM 14.0 °F -1.4 °F 6.8 °F 73% 30.36 in 10.0 mi North 15.0 mph - N/A   Partly Cloudy
7:35 AM 14.0 °F -1.4 °F 6.8 °F 73% 30.36 in 10.0 mi North 15.0 mph - N/A   Clear
7:55 AM 14.0 °F -2.5 °F 8.6 °F 79% 30.36 in 10.0 mi North 17.3 mph - N/A   Partly Cloudy
8:15 AM 14.0 °F -3.4 °F 6.8 °F 73% 30.37 in 10.0 mi North 19.6 mph - N/A   Mostly Cloudy
8:35 AM 15.8 °F -1.5 °F 5.0 °F 62% 30.38 in - North 20.7 mph - N/A   Partly Cloudy
8:55 AM 15.8 °F -2.3 °F 5.0 °F 62% 30.38 in 10.0 mi North 23.0 mph 28.8 mph N/A   Clear
9:15 AM 15.8 °F -1.9 °F 5.0 °F 62% 30.38 in 10.0 mi North 21.9 mph 28.8 mph N/A   Clear
9:35 AM 15.8 °F -2.3 °F 5.0 °F 62% 30.38 in 10.0 mi North 23.0 mph - N/A   Clear
9:55 AM 17.6 °F 1.3 °F 5.0 °F 58% 30.42 in 10.0 mi NNW 19.6 mph 25.3 mph N/A   Clear
10:15 AM 17.6 °F 2.2 °F 6.8 °F 63% 30.42 in 10.0 mi North 17.3 mph 24.2 mph N/A   Clear
10:35 AM 17.6 °F 0.9 °F 5.0 °F 58% 30.43 in 10.0 mi North 20.7 mph - N/A   Clear
10:55 AM 19.4 °F 3.2 °F 5.0 °F 54% 30.43 in 10.0 mi NNW 20.7 mph - N/A   Clear
11:15 AM 19.4 °F 4.5 °F 5.0 °F 54% 30.42 in 10.0 mi North 17.3 mph 25.3 mph N/A   Clear
11:35 AM 21.2 °F 6.8 °F 5.0 °F 50% 30.43 in 10.0 mi North 17.3 mph 26.5 mph N/A   Clear
11:55 AM 21.2 °F 6.4 °F 5.0 °F 50% 30.43 in 10.0 mi North 18.4 mph 25.3 mph N/A   Clear
12:15 PM 21.2 °F 7.3 °F 5.0 °F 50% 30.43 in 10.0 mi North 16.1 mph 21.9 mph N/A   Clear
12:55 PM 23.0 °F 10.1 °F 6.8 °F 50% 30.44 in 10.0 mi NNW 15.0 mph 21.9 mph N/A   Clear
1:15 PM 23.0 °F 8.7 °F 5.0 °F 46% 30.44 in 10.0 mi North 18.4 mph - N/A   Clear
1:35 PM 23.0 °F 10.1 °F 6.8 °F 50% 30.43 in 10.0 mi North 15.0 mph 20.7 mph N/A   Clear
1:55 PM 24.8 °F 12.4 °F 6.8 °F 46% 30.43 in 10.0 mi North 15.0 mph 21.9 mph N/A   Clear
2:15 PM 24.8 °F 11.9 °F 6.8 °F 46% 30.43 in 10.0 mi North 16.1 mph 24.2 mph N/A   Clear
2:35 PM 24.8 °F 12.9 °F 6.8 °F 46% 30.42 in - North 13.8 mph 20.7 mph N/A   Clear
2:55 PM 24.8 °F 12.4 °F 8.6 °F 50% 30.42 in 10.0 mi North 15.0 mph 20.7 mph N/A   Clear
3:15 PM 24.8 °F 13.4 °F 8.6 °F 50% 30.42 in 10.0 mi North 12.7 mph 20.7 mph N/A   Partly Cloudy
3:35 PM 26.6 °F 15.2 °F 6.8 °F 43% 30.42 in 10.0 mi North 13.8 mph 21.9 mph N/A   Partly Cloudy
3:55 PM 24.8 °F 12.9 °F 8.6 °F 50% 30.42 in 10.0 mi North 13.8 mph - N/A   Clear
4:15 PM 24.8 °F 12.4 °F 8.6 °F 50% 30.41 in 10.0 mi North 15.0 mph - N/A   Partly Cloudy
4:35 PM 26.6 °F 15.2 °F 8.6 °F 47% 30.41 in 10.0 mi North 13.8 mph - N/A   Partly Cloudy
4:55 PM 24.8 °F 13.4 °F 8.6 °F 50% 30.41 in 10.0 mi North 12.7 mph 19.6 mph N/A   Partly Cloudy
5:15 PM 24.8 °F 11.5 °F 8.6 °F 50% 30.41 in 10.0 mi North 17.3 mph - N/A   Clear
5:35 PM 24.8 °F 14.0 °F 8.6 °F 50% 30.42 in 10.0 mi North 11.5 mph - N/A   Clear
5:55 PM 24.8 °F 12.4 °F 8.6 °F 50% 30.42 in 10.0 mi NNW 15.0 mph - N/A   Clear
6:15 PM 24.8 °F 14.0 °F 8.6 °F 50% 30.42 in 10.0 mi North 11.5 mph 18.4 mph N/A   Clear
6:35 PM 24.8 °F 12.9 °F 10.4 °F 54% 30.42 in 10.0 mi North 13.8 mph - N/A   Partly Cloudy
6:55 PM 24.8 °F 13.4 °F 8.6 °F 50% 30.42 in 10.0 mi North 12.7 mph - N/A   Partly Cloudy
7:15 PM 24.8 °F 14.0 °F 8.6 °F 50% 30.42 in 10.0 mi NNW 11.5 mph - N/A   Clear
7:35 PM 24.8 °F 14.0 °F 10.4 °F 54% 30.43 in 10.0 mi North 11.5 mph - N/A   Mostly Cloudy
7:55 PM 23.0 °F 12.4 °F 10.4 °F 59% 30.43 in 10.0 mi North 10.4 mph - N/A   Overcast
8:15 PM 23.0 °F 12.4 °F 10.4 °F 59% 30.44 in 10.0 mi North 10.4 mph - N/A   Overcast
8:35 PM 21.2 °F 13.6 °F 12.2 °F 68% 30.44 in 10.0 mi NNW 5.8 mph - N/A   Overcast
8:55 PM 21.2 °F 14.9 °F 12.2 °F 68% 30.45 in 10.0 mi NNW 4.6 mph - N/A   Overcast
9:15 PM 19.4 °F 11.5 °F 10.4 °F 68% 30.46 in 10.0 mi NW 5.8 mph - N/A   Mostly Cloudy
9:35 PM 19.4 °F 12.8 °F 10.4 °F 68% 30.46 in 10.0 mi North 4.6 mph - N/A   Mostly Cloudy
9:55 PM 17.6 °F 9.3 °F 10.4 °F 73% 30.46 in 10.0 mi North 5.8 mph - N/A   Overcast
10:15 PM 17.6 °F 10.7 °F 10.4 °F 73% 30.47 in 10.0 mi North 4.6 mph - N/A   Mostly Cloudy
10:35 PM 17.6 °F 8.2 °F 10.4 °F 73% 30.47 in 10.0 mi NNE 6.9 mph - N/A   Clear
10:55 PM 19.4 °F 10.4 °F 10.4 °F 68% 30.48 in 10.0 mi NNE 6.9 mph - N/A   Partly Cloudy
11:15 PM 17.6 °F 9.3 °F 8.6 °F 68% 30.49 in 10.0 mi NNE 5.8 mph - N/A   Partly Cloudy
11:35 PM 15.8 °F 8.6 °F 8.6 °F 73% 30.49 in 10.0 mi NNE 4.6 mph - N/A   Scattered Clouds
11:55 PM 17.6 °F 8.2 °F 8.6 °F 68% 30.49 in 10.0 mi NNE 6.9 mph - N/A   Clear